createdAt,value
2018-06-21T00:00:02.393Z,8.60
2018-06-21T00:01:02.408Z,8.10
2018-06-21T00:02:02.399Z,8.70
2018-06-21T00:03:02.410Z,11.40
2018-06-21T00:04:02.409Z,8.40
2018-06-21T00:05:02.411Z,10.50
2018-06-21T00:06:02.418Z,9.70
2018-06-21T00:07:02.422Z,8.80
2018-06-21T00:08:02.423Z,12.00
2018-06-21T00:09:02.426Z,11.00
2018-06-21T00:10:02.456Z,9.50
2018-06-21T00:11:02.434Z,9.20
2018-06-21T00:12:02.440Z,8.30
2018-06-21T00:13:02.441Z,8.50
2018-06-21T00:14:02.445Z,8.40
2018-06-21T00:15:02.450Z,9.60
2018-06-21T00:16:02.455Z,9.00
2018-06-21T00:17:02.456Z,8.70
2018-06-21T00:18:02.459Z,7.90
2018-06-21T00:19:02.466Z,11.20
2018-06-21T00:20:02.469Z,10.30
2018-06-21T00:21:02.472Z,10.50
2018-06-21T00:22:02.476Z,8.80
2018-06-21T00:23:02.477Z,8.90
2018-06-21T00:24:02.482Z,8.90
2018-06-21T00:25:02.487Z,11.30
2018-06-21T00:26:02.492Z,8.80
2018-06-21T00:27:02.493Z,9.00
2018-06-21T00:28:02.495Z,9.70
2018-06-21T00:29:02.499Z,9.70
2018-06-21T00:30:02.504Z,11.70
2018-06-21T00:31:02.507Z,10.20
2018-06-21T00:32:02.510Z,10.50
2018-06-21T00:33:02.516Z,7.70
2018-06-21T00:34:02.517Z,9.60
2018-06-21T00:35:02.520Z,10.50
2018-06-21T00:36:02.524Z,8.60
2018-06-21T00:37:02.528Z,9.70
2018-06-21T00:38:02.530Z,8.90
2018-06-21T00:39:02.536Z,9.50
2018-06-21T00:40:02.538Z,8.20
2018-06-21T00:41:02.540Z,7.70
2018-06-21T00:42:02.543Z,9.50
2018-06-21T00:43:02.549Z,11.60
2018-06-21T00:44:02.549Z,9.20
2018-06-21T00:45:02.552Z,12.80
2018-06-21T00:46:02.557Z,7.70
2018-06-21T00:47:02.559Z,11.80
2018-06-21T00:48:02.564Z,7.90
2018-06-21T00:49:02.567Z,12.40
2018-06-21T00:50:02.569Z,9.80
2018-06-21T00:51:02.579Z,9.90
2018-06-21T00:52:02.576Z,10.00
2018-06-21T00:53:02.580Z,11.60
2018-06-21T00:54:02.583Z,9.10
2018-06-21T00:55:02.589Z,10.50
2018-06-21T00:56:02.592Z,8.90
2018-06-21T00:57:02.602Z,8.20
2018-06-21T00:58:02.596Z,10.60
2018-06-21T00:59:02.600Z,9.40
2018-06-21T01:00:02.610Z,10.50
2018-06-21T01:01:02.605Z,10.10
2018-06-21T01:02:02.610Z,9.40
2018-06-21T01:03:02.613Z,9.30
2018-06-21T01:04:02.616Z,10.60
2018-06-21T01:05:02.620Z,8.40
2018-06-21T01:06:02.624Z,11.30
2018-06-21T01:07:02.624Z,11.50
2018-06-21T01:08:02.628Z,9.80
2018-06-21T01:09:02.643Z,8.90
2018-06-21T01:10:02.634Z,9.30
2018-06-21T01:11:02.638Z,11.00
2018-06-21T01:12:02.643Z,8.60
2018-06-21T01:13:02.643Z,10.80
2018-06-21T01:14:02.646Z,9.40
2018-06-21T01:15:02.650Z,11.00
2018-06-21T01:16:02.652Z,12.80
2018-06-21T01:17:02.637Z,9.90
2018-06-21T01:18:02.639Z,9.20
2018-06-21T01:19:02.642Z,10.30
2018-06-21T01:20:02.645Z,9.00
2018-06-21T01:21:02.668Z,10.90
2018-06-21T01:22:02.664Z,9.90
2018-06-21T01:23:02.658Z,9.20
2018-06-21T01:24:02.659Z,7.80
2018-06-21T01:25:02.659Z,8.70
2018-06-21T01:26:02.663Z,9.50
2018-06-21T01:27:02.666Z,9.30
2018-06-21T01:28:02.668Z,9.80
2018-06-21T01:29:02.675Z,9.30
2018-06-21T01:30:02.681Z,9.80
2018-06-21T01:31:02.678Z,9.90
2018-06-21T01:32:02.680Z,10.70
2018-06-21T01:33:02.682Z,11.00
2018-06-21T01:34:02.689Z,10.60
2018-06-21T01:35:02.689Z,9.70
2018-06-21T01:36:02.693Z,8.70
2018-06-21T01:37:02.695Z,11.30
2018-06-21T01:38:02.701Z,14.90
2018-06-21T01:39:04.415Z,10.50
2018-06-21T01:40:02.703Z,9.60
2018-06-21T01:41:02.708Z,10.10
2018-06-21T01:42:02.709Z,11.10
2018-06-21T01:43:02.717Z,9.60
2018-06-21T01:44:02.717Z,10.70
2018-06-21T01:45:02.717Z,9.90
2018-06-21T01:46:02.720Z,9.80
2018-06-21T01:47:02.724Z,9.80
2018-06-21T01:48:02.727Z,9.80
2018-06-21T01:49:02.727Z,13.00
2018-06-21T01:50:02.732Z,11.10
2018-06-21T01:51:02.737Z,9.90
2018-06-21T01:52:02.738Z,10.30
2018-06-21T01:53:02.738Z,11.10
2018-06-21T01:54:02.746Z,12.40
2018-06-21T01:55:02.749Z,12.80
2018-06-21T01:56:02.747Z,9.80
2018-06-21T01:57:02.749Z,11.50
2018-06-21T01:58:02.754Z,8.70
2018-06-21T01:59:02.757Z,10.30
2018-06-21T02:00:02.759Z,9.30
2018-06-21T02:01:02.763Z,11.20
2018-06-21T02:02:02.765Z,9.90
2018-06-21T02:03:02.766Z,8.50
2018-06-21T02:04:02.770Z,9.50
2018-06-21T02:05:02.772Z,8.60
2018-06-21T02:06:02.828Z,10.00
2018-06-21T02:07:02.780Z,9.70
2018-06-21T02:08:02.827Z,9.00
2018-06-21T02:09:02.782Z,8.80
2018-06-21T02:10:02.788Z,9.50
2018-06-21T02:11:02.789Z,9.80
2018-06-21T02:12:02.793Z,10.20
2018-06-21T02:13:02.794Z,11.20
2018-06-21T02:14:02.800Z,10.50
2018-06-21T02:15:02.801Z,9.30
2018-06-21T02:16:02.803Z,10.70
2018-06-21T02:17:02.811Z,9.50
2018-06-21T02:18:02.808Z,11.60
2018-06-21T02:19:02.810Z,9.60
2018-06-21T02:20:02.813Z,11.50
2018-06-21T02:21:02.818Z,11.00
2018-06-21T02:22:02.821Z,11.00
2018-06-21T02:23:02.820Z,8.90
2018-06-21T02:24:02.825Z,11.40
2018-06-21T02:25:02.833Z,10.90
2018-06-21T02:26:02.829Z,10.10
2018-06-21T02:27:02.832Z,11.90
2018-06-21T02:28:02.845Z,9.90
2018-06-21T02:29:02.840Z,9.20
2018-06-21T02:30:02.841Z,11.50
2018-06-21T02:31:02.843Z,11.30
2018-06-21T02:32:02.848Z,9.30
2018-06-21T02:33:02.849Z,10.90
2018-06-21T02:34:02.854Z,9.00
2018-06-21T02:35:02.853Z,8.50
2018-06-21T02:36:02.859Z,8.60
2018-06-21T02:37:02.858Z,11.20
2018-06-21T02:38:02.860Z,11.40
2018-06-21T02:39:02.864Z,10.70
2018-06-21T02:40:02.868Z,9.30
2018-06-21T02:41:02.871Z,11.80
2018-06-21T02:42:02.875Z,9.40
2018-06-21T02:43:02.873Z,13.00
2018-06-21T02:44:02.875Z,10.20
2018-06-21T02:45:02.878Z,9.80
2018-06-21T02:46:02.881Z,11.40
2018-06-21T02:47:02.884Z,9.50
2018-06-21T02:48:02.885Z,8.90
2018-06-21T02:49:02.889Z,11.80
2018-06-21T02:50:02.894Z,10.30
2018-06-21T02:51:02.893Z,10.10
2018-06-21T02:52:02.897Z,10.60
2018-06-21T02:53:02.920Z,11.60
2018-06-21T02:54:02.901Z,11.80
2018-06-21T02:55:02.904Z,12.00
2018-06-21T02:56:02.907Z,10.60
2018-06-21T02:57:02.909Z,12.60
2018-06-21T02:58:02.909Z,11.30
2018-06-21T02:59:02.912Z,13.30
2018-06-21T03:00:02.916Z,12.30
2018-06-21T03:01:02.919Z,11.30
2018-06-21T03:02:02.925Z,10.30
2018-06-21T03:03:02.921Z,12.60
2018-06-21T03:04:02.934Z,9.50
2018-06-21T03:05:02.928Z,11.60
2018-06-21T03:06:02.938Z,9.80
2018-06-21T03:07:02.931Z,10.00
2018-06-21T03:08:02.934Z,11.30
2018-06-21T03:09:02.935Z,11.90
2018-06-21T03:10:02.938Z,11.50
2018-06-21T03:11:02.940Z,11.20
2018-06-21T03:12:02.944Z,10.90
2018-06-21T03:13:02.944Z,10.30
2018-06-21T03:14:02.952Z,11.10
2018-06-21T03:15:02.952Z,9.20
2018-06-21T03:16:02.956Z,14.30
2018-06-21T03:17:02.959Z,10.10
2018-06-21T03:18:38.703Z,10.90
2018-06-21T03:19:02.961Z,10.30
2018-06-21T03:20:02.964Z,11.70
2018-06-21T03:21:02.964Z,13.30
2018-06-21T03:22:02.980Z,13.30
2018-06-21T03:23:02.969Z,10.90
2018-06-21T03:24:02.973Z,10.90
2018-06-21T03:25:03.008Z,11.40
2018-06-21T03:26:02.979Z,11.80
2018-06-21T03:27:02.981Z,11.60
2018-06-21T03:28:02.981Z,11.20
2018-06-21T03:29:02.985Z,12.60
2018-06-21T03:30:02.988Z,9.30
2018-06-21T03:31:02.989Z,10.80
2018-06-21T03:32:02.991Z,9.70
2018-06-21T03:33:02.992Z,13.50
2018-06-21T03:34:02.993Z,10.30
2018-06-21T03:35:02.997Z,11.00
2018-06-21T03:36:03.000Z,9.60
2018-06-21T03:37:03.000Z,11.00
2018-06-21T03:38:03.003Z,9.80
2018-06-21T03:39:03.008Z,9.20
2018-06-21T03:40:03.009Z,10.00
2018-06-21T03:41:03.010Z,9.50
2018-06-21T03:42:03.013Z,10.60
2018-06-21T03:43:03.016Z,10.80
2018-06-21T03:44:03.018Z,12.30
2018-06-21T03:45:03.019Z,9.20
2018-06-21T03:46:03.024Z,11.90
2018-06-21T03:47:03.025Z,10.10
2018-06-21T03:48:03.030Z,11.80
2018-06-21T03:49:03.033Z,12.30
2018-06-21T03:50:03.034Z,14.00
2018-06-21T03:51:03.034Z,12.50
2018-06-21T03:52:03.037Z,11.10
2018-06-21T03:53:03.037Z,11.70
2018-06-21T03:54:03.041Z,10.10
2018-06-21T03:55:03.044Z,13.10
2018-06-21T03:56:03.046Z,10.40
2018-06-21T03:57:03.047Z,13.30
2018-06-21T03:58:03.050Z,9.10
2018-06-21T03:59:03.053Z,12.50
2018-06-21T04:00:03.055Z,11.50
2018-06-21T04:01:03.057Z,10.70
2018-06-21T04:02:03.063Z,13.40
2018-06-21T04:03:03.079Z,14.60
2018-06-21T04:04:03.065Z,12.90
2018-06-21T04:05:03.066Z,9.70
2018-06-21T04:06:03.069Z,12.50
2018-06-21T04:07:03.071Z,9.60
2018-06-21T04:08:03.073Z,10.80
2018-06-21T04:09:03.077Z,10.70
2018-06-21T04:10:03.078Z,9.10
2018-06-21T04:11:03.083Z,11.40
2018-06-21T04:12:03.085Z,11.20
2018-06-21T04:13:03.091Z,11.10
2018-06-21T04:14:03.088Z,10.50
2018-06-21T04:15:03.091Z,10.90
2018-06-21T04:16:03.095Z,11.40
2018-06-21T04:17:03.095Z,11.60
2018-06-21T04:18:03.103Z,10.90
2018-06-21T04:19:03.103Z,9.60
2018-06-21T04:20:03.104Z,10.10
2018-06-21T04:21:03.106Z,10.50
2018-06-21T04:22:03.111Z,9.00
2018-06-21T04:23:03.113Z,10.20
2018-06-21T04:24:03.114Z,14.00
2018-06-21T04:25:03.118Z,10.40
2018-06-21T04:26:03.120Z,11.60
2018-06-21T04:27:03.141Z,9.50
2018-06-21T04:28:03.130Z,11.20
2018-06-21T04:29:03.124Z,9.50
2018-06-21T04:30:03.128Z,9.70
2018-06-21T04:31:03.131Z,11.10
2018-06-21T04:32:03.245Z,10.50
2018-06-21T04:33:03.136Z,10.40
2018-06-21T04:34:03.145Z,9.00
2018-06-21T04:35:03.141Z,11.20
2018-06-21T04:36:03.146Z,9.10
2018-06-21T04:37:03.146Z,9.50
2018-06-21T04:38:03.148Z,9.40
2018-06-21T04:39:03.150Z,8.70
2018-06-21T04:40:03.155Z,9.60
2018-06-21T04:41:03.156Z,10.10
2018-06-21T04:42:03.161Z,10.40
2018-06-21T04:43:03.162Z,11.60
2018-06-21T04:44:03.165Z,11.20
2018-06-21T04:45:03.167Z,12.30
2018-06-21T04:46:03.170Z,11.00
2018-06-21T04:47:03.173Z,9.80
2018-06-21T04:48:03.174Z,10.40
2018-06-21T04:49:03.176Z,13.40
2018-06-21T04:50:03.179Z,11.10
2018-06-21T04:51:03.183Z,11.90
2018-06-21T04:52:03.187Z,10.70
2018-06-21T04:53:03.192Z,10.80
2018-06-21T04:54:03.191Z,16.10
2018-06-21T04:55:03.195Z,12.80
2018-06-21T04:56:03.219Z,9.80
2018-06-21T04:57:03.201Z,11.70
2018-06-21T04:58:03.206Z,14.60
2018-06-21T04:59:03.207Z,10.90
2018-06-21T05:00:03.223Z,9.00
2018-06-21T05:01:03.212Z,10.50
2018-06-21T05:02:03.237Z,10.60
2018-06-21T05:03:03.219Z,10.50
2018-06-21T05:04:03.222Z,10.90
2018-06-21T05:05:03.225Z,11.50
2018-06-21T05:06:03.231Z,10.20
2018-06-21T05:07:03.233Z,12.20
2018-06-21T05:08:03.235Z,12.00
2018-06-21T05:09:03.239Z,10.70
2018-06-21T05:10:03.240Z,9.70
2018-06-21T05:11:03.255Z,10.30
2018-06-21T05:12:03.247Z,9.40
2018-06-21T05:13:03.254Z,9.80
2018-06-21T05:14:03.259Z,12.50
2018-06-21T05:15:03.259Z,11.80
2018-06-21T05:16:03.262Z,11.90
2018-06-21T05:17:03.265Z,13.30
2018-06-21T05:18:03.269Z,16.70
2018-06-21T05:19:03.273Z,10.70
2018-06-21T05:20:03.279Z,9.80
2018-06-21T05:21:03.279Z,10.00
2018-06-21T05:22:03.282Z,12.80
2018-06-21T05:23:03.300Z,12.40
2018-06-21T05:24:03.292Z,8.50
2018-06-21T05:25:03.313Z,10.90
2018-06-21T05:26:03.291Z,12.20
2018-06-21T05:27:03.294Z,9.30
2018-06-21T05:28:03.302Z,20.40
2018-06-21T05:29:03.301Z,11.50
2018-06-21T05:30:03.307Z,10.00
2018-06-21T05:31:03.316Z,9.70
2018-06-21T05:32:03.329Z,8.80
2018-06-21T05:33:03.320Z,13.20
2018-06-21T05:34:03.332Z,13.10
2018-06-21T05:35:03.328Z,11.80
2018-06-21T05:36:03.335Z,11.80
2018-06-21T05:37:03.336Z,10.60
2018-06-21T05:38:03.342Z,15.10
2018-06-21T05:39:03.353Z,14.30
2018-06-21T05:40:03.355Z,14.10
2018-06-21T05:41:03.359Z,12.10
2018-06-21T05:42:03.365Z,11.30
2018-06-21T05:43:03.367Z,12.30
2018-06-21T05:44:03.373Z,11.00
2018-06-21T05:45:03.386Z,8.80
2018-06-21T05:46:03.382Z,10.70
2018-06-21T05:47:03.388Z,16.60
2018-06-21T05:48:03.393Z,8.40
2018-06-21T05:49:03.398Z,11.70
2018-06-21T05:50:03.404Z,14.40
2018-06-21T05:51:03.431Z,15.10
2018-06-21T05:52:03.595Z,9.30
2018-06-21T05:53:03.417Z,15.50
2018-06-21T05:54:03.423Z,15.10
2018-06-21T05:55:03.427Z,12.30
2018-06-21T05:56:03.434Z,13.40
2018-06-21T05:57:03.440Z,11.30
2018-06-21T05:58:03.442Z,9.50
2018-06-21T05:59:03.447Z,15.00
2018-06-21T06:00:03.452Z,15.20
2018-06-21T06:01:03.469Z,15.50
2018-06-21T06:02:03.481Z,11.60
2018-06-21T06:03:03.467Z,10.70
2018-06-21T06:04:03.471Z,13.30
2018-06-21T06:05:03.478Z,13.50
2018-06-21T06:06:03.483Z,12.60
2018-06-21T06:07:03.489Z,9.10
2018-06-21T06:08:03.491Z,11.50
2018-06-21T06:09:03.496Z,18.40
2018-06-21T06:10:03.513Z,13.30
2018-06-21T06:11:03.507Z,12.10
2018-06-21T06:12:03.517Z,11.00
2018-06-21T06:13:03.544Z,16.10
2018-06-21T06:14:03.528Z,11.00
2018-06-21T06:15:03.526Z,10.60
2018-06-21T06:16:03.532Z,12.90
2018-06-21T06:17:03.536Z,10.40
2018-06-21T06:18:03.542Z,14.50
2018-06-21T06:19:03.551Z,12.90
2018-06-21T06:20:03.623Z,13.30
2018-06-21T06:21:03.557Z,14.80
2018-06-21T06:22:03.562Z,10.30
2018-06-21T06:23:03.568Z,9.60
2018-06-21T06:24:03.573Z,15.10
2018-06-21T06:25:03.580Z,19.90
2018-06-21T06:26:03.583Z,18.90
2018-06-21T06:27:03.589Z,14.90
2018-06-21T06:28:03.595Z,14.10
2018-06-21T06:29:03.599Z,13.90
2018-06-21T06:30:03.606Z,17.30
2018-06-21T06:31:03.609Z,10.50
2018-06-21T06:32:03.617Z,10.40
2018-06-21T06:33:03.622Z,8.30
2018-06-21T06:34:03.635Z,7.70
2018-06-21T06:35:03.634Z,7.30
2018-06-21T06:36:03.638Z,9.50
2018-06-21T06:37:03.641Z,9.80
2018-06-21T06:38:03.646Z,10.90
2018-06-21T06:39:03.652Z,10.60
2018-06-21T06:40:03.657Z,8.40
2018-06-21T06:41:03.662Z,13.00
2018-06-21T06:42:03.666Z,16.60
2018-06-21T06:43:03.673Z,12.20
2018-06-21T06:44:03.677Z,8.80
2018-06-21T06:45:03.682Z,9.00
2018-06-21T06:46:03.690Z,11.70
2018-06-21T06:47:03.693Z,9.80
2018-06-21T06:48:03.700Z,7.20
2018-06-21T06:49:03.703Z,8.60
2018-06-21T06:50:03.708Z,12.80
2018-06-21T06:51:03.720Z,7.70
2018-06-21T06:52:03.718Z,10.90
2018-06-21T06:53:03.723Z,6.70
2018-06-21T06:54:03.738Z,7.70
2018-06-21T06:55:03.744Z,9.00
2018-06-21T06:56:03.744Z,9.10
2018-06-21T06:57:03.743Z,10.90
2018-06-21T06:58:03.748Z,9.20
2018-06-21T06:59:03.825Z,8.80
2018-06-21T07:00:03.761Z,8.90
2018-06-21T07:01:03.769Z,6.10
2018-06-21T07:02:03.769Z,9.70
2018-06-21T07:03:03.778Z,9.90
2018-06-21T07:04:03.781Z,8.90
2018-06-21T07:05:03.785Z,9.10
2018-06-21T07:06:03.798Z,7.70
2018-06-21T07:07:03.796Z,9.80
2018-06-21T07:08:03.832Z,12.20
2018-06-21T07:09:03.806Z,10.40
2018-06-21T07:10:03.812Z,6.40
2018-06-21T07:11:03.821Z,8.40
2018-06-21T07:12:03.822Z,9.80
2018-06-21T07:13:03.825Z,7.00
2018-06-21T07:14:03.863Z,10.30
2018-06-21T07:15:03.837Z,11.70
2018-06-21T07:16:03.842Z,8.10
2018-06-21T07:17:03.851Z,6.90
2018-06-21T07:18:03.854Z,10.70
2018-06-21T07:19:03.861Z,7.10
2018-06-21T07:20:03.867Z,7.40
2018-06-21T07:21:03.868Z,5.90
2018-06-21T07:22:03.877Z,9.20
2018-06-21T07:23:03.880Z,6.00
2018-06-21T07:24:03.890Z,10.20
2018-06-21T07:25:03.892Z,7.60
2018-06-21T07:26:03.894Z,5.70
2018-06-21T07:27:03.960Z,8.80
2018-06-21T07:28:03.906Z,4.50
2018-06-21T07:29:03.910Z,7.30
2018-06-21T07:30:03.915Z,6.00
2018-06-21T07:31:03.929Z,3.50
2018-06-21T07:32:03.935Z,4.20
2018-06-21T07:33:03.931Z,12.70
2018-06-21T07:34:03.946Z,6.90
2018-06-21T07:35:03.944Z,7.30
2018-06-21T07:36:03.950Z,4.60
2018-06-21T07:37:03.955Z,10.70
2018-06-21T07:38:03.961Z,6.10
2018-06-21T07:39:04.011Z,13.20
2018-06-21T07:40:03.977Z,4.20
2018-06-21T07:41:03.976Z,2.80
2018-06-21T07:42:03.985Z,4.20
2018-06-21T07:43:03.986Z,5.20
2018-06-21T07:44:03.997Z,7.50
2018-06-21T07:45:03.998Z,6.20
2018-06-21T07:46:04.011Z,8.60
2018-06-21T07:47:04.011Z,3.80
2018-06-21T07:48:04.017Z,2.90
2018-06-21T07:49:04.033Z,4.50
2018-06-21T07:50:04.031Z,4.50
2018-06-21T07:51:04.048Z,4.50
2018-06-21T07:52:04.039Z,5.70
2018-06-21T07:53:04.044Z,5.00
2018-06-21T07:54:04.055Z,6.90
2018-06-21T07:55:04.056Z,4.00
2018-06-21T07:56:04.067Z,3.20
2018-06-21T07:57:04.079Z,4.00
2018-06-21T07:58:04.084Z,3.50
2018-06-21T07:59:04.128Z,3.60
2018-06-21T08:00:04.085Z,4.80
2018-06-21T08:01:04.090Z,6.20
2018-06-21T08:02:04.095Z,6.70
2018-06-21T08:03:04.104Z,8.20
2018-06-21T08:04:04.114Z,4.40
2018-06-21T08:05:04.169Z,4.90
2018-06-21T08:06:04.120Z,5.70
2018-06-21T08:07:04.140Z,5.00
2018-06-21T08:08:04.510Z,7.90
2018-06-21T08:09:04.139Z,7.90
2018-06-21T08:10:04.147Z,4.90
2018-06-21T08:11:04.149Z,4.20
2018-06-21T08:12:04.156Z,9.20
2018-06-21T08:13:04.162Z,8.60
2018-06-21T08:14:04.167Z,7.10
2018-06-21T08:15:04.238Z,6.60
2018-06-21T08:16:04.181Z,7.80
2018-06-21T08:17:04.184Z,4.30
2018-06-21T08:18:04.191Z,9.40
2018-06-21T08:19:04.197Z,8.00
2018-06-21T08:20:04.203Z,7.20
2018-06-21T08:21:04.210Z,4.20
2018-06-21T08:22:04.214Z,8.70
2018-06-21T08:23:04.225Z,8.20
2018-06-21T08:24:04.229Z,5.60
2018-06-21T08:25:04.237Z,5.40
2018-06-21T08:26:04.239Z,4.80
2018-06-21T08:27:04.245Z,4.20
2018-06-21T08:28:04.250Z,5.80
2018-06-21T08:29:04.257Z,3.10
2018-06-21T08:30:04.263Z,4.70
2018-06-21T08:31:04.269Z,4.40
2018-06-21T08:32:04.276Z,3.10
2018-06-21T08:33:04.280Z,3.90
2018-06-21T08:34:04.287Z,6.50
2018-06-21T08:35:04.293Z,6.00
2018-06-21T08:36:04.300Z,3.10
2018-06-21T08:37:04.314Z,5.10
2018-06-21T08:38:04.313Z,6.60
2018-06-21T08:39:04.388Z,4.40
2018-06-21T08:40:04.341Z,7.70
2018-06-21T08:41:04.332Z,7.70
2018-06-21T08:42:04.341Z,4.30
2018-06-21T08:43:04.348Z,6.50
2018-06-21T08:44:04.357Z,8.70
2018-06-21T08:45:04.365Z,2.30
2018-06-21T08:46:04.386Z,9.50
2018-06-21T08:47:04.378Z,3.70
2018-06-21T08:48:04.385Z,4.20
2018-06-21T08:49:04.394Z,2.30
2018-06-21T08:50:04.407Z,3.90
2018-06-21T08:51:04.410Z,4.20
2018-06-21T08:52:04.429Z,6.90
2018-06-21T08:53:04.422Z,5.90
2018-06-21T08:54:04.434Z,4.60
2018-06-21T08:55:04.441Z,3.20
2018-06-21T08:56:04.450Z,2.80
2018-06-21T08:57:04.457Z,3.90
2018-06-21T08:58:04.464Z,6.90
2018-06-21T08:59:04.496Z,5.30
2018-06-21T09:00:04.489Z,6.90
2018-06-21T09:01:04.494Z,8.30
2018-06-21T09:02:04.498Z,7.20
2018-06-21T09:03:04.506Z,4.50
2018-06-21T09:04:04.523Z,8.50
2018-06-21T09:05:04.523Z,7.10
2018-06-21T09:06:04.532Z,6.80
2018-06-21T09:07:04.541Z,5.00
2018-06-21T09:08:04.549Z,6.60
2018-06-21T09:09:04.559Z,3.50
2018-06-21T09:10:04.569Z,7.60
2018-06-21T09:11:04.578Z,6.20
2018-06-21T09:12:04.587Z,5.00
2018-06-21T09:13:04.598Z,3.60
2018-06-21T09:14:04.613Z,2.90
2018-06-21T09:15:04.616Z,5.50
2018-06-21T09:16:04.624Z,4.40
2018-06-21T09:17:04.640Z,4.10
2018-06-21T09:18:04.643Z,3.40
2018-06-21T09:19:04.660Z,4.20
2018-06-21T09:20:04.660Z,7.30
2018-06-21T09:21:04.679Z,4.30
2018-06-21T09:22:04.683Z,4.20
2018-06-21T09:23:04.696Z,6.70
2018-06-21T09:24:04.702Z,5.00
2018-06-21T09:25:04.709Z,4.50
2018-06-21T09:26:04.719Z,7.30
2018-06-21T09:27:04.736Z,6.60
2018-06-21T09:28:04.741Z,5.20
2018-06-21T09:29:04.751Z,7.30
2018-06-21T09:30:04.762Z,7.30
2018-06-21T09:31:04.774Z,5.40
2018-06-21T09:32:04.790Z,5.70
2018-06-21T09:33:04.797Z,7.00
2018-06-21T09:34:04.803Z,4.70
2018-06-21T09:35:04.816Z,5.80
2018-06-21T09:36:04.827Z,7.60
2018-06-21T09:37:04.832Z,5.70
2018-06-21T09:38:04.847Z,5.10
2018-06-21T09:39:04.861Z,6.30
2018-06-21T09:40:04.862Z,6.30
2018-06-21T09:41:04.872Z,7.10
2018-06-21T09:42:04.890Z,7.90
2018-06-21T09:43:04.897Z,7.70
2018-06-21T09:44:04.904Z,7.30
2018-06-21T09:45:04.911Z,8.30
2018-06-21T09:46:04.926Z,8.00
2018-06-21T09:47:04.971Z,3.80
2018-06-21T09:48:04.939Z,5.30
2018-06-21T09:49:04.954Z,5.90
2018-06-21T09:50:04.958Z,4.50
2018-06-21T09:51:04.969Z,3.80
2018-06-21T09:52:04.984Z,6.70
2018-06-21T09:53:04.982Z,14.10
2018-06-21T09:54:04.993Z,6.80
2018-06-21T09:55:05.005Z,7.90
2018-06-21T09:56:05.011Z,6.70
2018-06-21T09:57:05.019Z,10.30
2018-06-21T09:58:05.050Z,10.70
2018-06-21T09:59:05.037Z,6.80
2018-06-21T10:00:05.054Z,7.30
2018-06-21T10:01:05.056Z,5.60
2018-06-21T10:02:05.067Z,14.50
2018-06-21T10:03:05.072Z,9.20
2018-06-21T10:04:05.093Z,14.20
2018-06-21T10:05:05.090Z,8.00
2018-06-21T10:06:05.099Z,9.00
2018-06-21T10:07:05.117Z,13.80
2018-06-21T10:08:05.117Z,5.90
2018-06-21T10:09:05.127Z,7.50
2018-06-21T10:10:05.134Z,8.70
2018-06-21T10:11:05.144Z,10.00
2018-06-21T10:12:05.153Z,4.40
2018-06-21T10:13:05.315Z,8.30
2018-06-21T10:14:05.171Z,8.10
2018-06-21T10:15:05.181Z,11.70
2018-06-21T10:16:05.189Z,8.60
2018-06-21T10:17:05.198Z,11.20
2018-06-21T10:18:05.209Z,3.60
2018-06-21T10:19:05.217Z,7.40
2018-06-21T10:20:05.226Z,6.60
2018-06-21T10:21:05.233Z,7.50
2018-06-21T10:22:05.244Z,6.30
2018-06-21T10:23:05.430Z,4.10
2018-06-21T10:24:05.269Z,14.00
2018-06-21T10:25:05.272Z,5.60
2018-06-21T10:26:05.280Z,6.90
2018-06-21T10:27:05.287Z,5.20
2018-06-21T10:28:05.298Z,8.50
2018-06-21T10:29:05.307Z,4.60
2018-06-21T10:30:05.329Z,8.60
2018-06-21T10:31:05.342Z,7.50
2018-06-21T10:32:05.337Z,3.20
2018-06-21T10:33:05.349Z,7.50
2018-06-21T10:34:05.366Z,7.00
2018-06-21T10:35:05.399Z,6.40
2018-06-21T10:36:05.381Z,6.90
2018-06-21T10:37:05.387Z,5.40
2018-06-21T10:38:05.397Z,4.70
2018-06-21T10:39:05.423Z,4.70
2018-06-21T10:40:05.420Z,8.60
2018-06-21T10:41:05.430Z,10.10
2018-06-21T10:42:05.442Z,5.90
2018-06-21T10:43:05.457Z,6.80
2018-06-21T10:44:05.466Z,5.00
2018-06-21T10:45:05.478Z,4.90
2018-06-21T10:46:05.488Z,5.30
2018-06-21T10:47:05.549Z,3.70
2018-06-21T10:48:05.513Z,3.60
2018-06-21T10:49:05.583Z,3.50
2018-06-21T10:50:05.537Z,5.90
2018-06-21T10:51:05.548Z,4.40
2018-06-21T10:52:05.555Z,8.30
2018-06-21T10:53:05.570Z,5.70
2018-06-21T10:54:05.611Z,4.10
2018-06-21T10:55:05.599Z,5.40
2018-06-21T10:56:05.604Z,6.30
2018-06-21T10:57:05.647Z,4.70
2018-06-21T10:58:05.637Z,3.60
2018-06-21T10:59:05.645Z,2.00
2018-06-21T11:00:05.664Z,6.90
2018-06-21T11:01:05.670Z,8.80
2018-06-21T11:02:05.683Z,3.20
2018-06-21T11:03:05.698Z,4.00
2018-06-21T11:04:05.810Z,4.40
2018-06-21T11:05:05.721Z,5.80
2018-06-21T11:06:05.735Z,5.10
2018-06-21T11:07:05.747Z,5.30
2018-06-21T11:08:05.754Z,4.10
2018-06-21T11:09:05.764Z,3.00
2018-06-21T11:10:05.778Z,5.50
2018-06-21T11:11:05.789Z,7.30
2018-06-21T11:12:05.804Z,2.30
2018-06-21T11:13:05.821Z,3.30
2018-06-21T11:14:05.829Z,2.30
2018-06-21T11:15:05.841Z,5.00
2018-06-21T11:16:05.847Z,5.20
2018-06-21T11:17:05.888Z,6.40
2018-06-21T11:18:05.910Z,2.40
2018-06-21T11:19:05.877Z,6.40
2018-06-21T11:20:05.892Z,4.90
2018-06-21T11:21:05.900Z,4.20
2018-06-21T11:22:05.910Z,6.60
2018-06-21T11:23:05.923Z,15.90
2018-06-21T11:24:05.931Z,27.30
2018-06-21T11:25:05.939Z,22.40
2018-06-21T11:26:05.954Z,11.10
2018-06-21T11:27:06.164Z,10.80
2018-06-21T11:28:06.028Z,7.30
2018-06-21T11:29:05.984Z,12.20
2018-06-21T11:30:05.986Z,13.10
2018-06-21T11:31:06.003Z,6.60
2018-06-21T11:32:06.004Z,12.50
2018-06-21T11:33:06.084Z,9.20
2018-06-21T11:34:06.020Z,8.40
2018-06-21T11:35:06.039Z,16.70
2018-06-21T11:36:06.037Z,8.60
2018-06-21T11:37:06.045Z,5.80
2018-06-21T11:38:06.111Z,6.90
2018-06-21T11:39:06.060Z,9.80
2018-06-21T11:40:06.076Z,3.50
2018-06-21T11:41:06.073Z,7.70
2018-06-21T11:42:06.089Z,2.50
2018-06-21T11:43:06.089Z,3.80
2018-06-21T11:44:06.097Z,7.40
2018-06-21T11:45:06.102Z,6.70
2018-06-21T11:46:06.111Z,3.80
2018-06-21T11:47:06.124Z,9.00
2018-06-21T11:48:06.128Z,5.30
2018-06-21T11:49:06.139Z,2.60
2018-06-21T11:50:06.294Z,5.60
2018-06-21T11:51:06.150Z,2.30
2018-06-21T11:52:06.177Z,2.90
2018-06-21T11:53:06.164Z,8.30
2018-06-21T11:54:06.177Z,5.70
2018-06-21T11:55:06.179Z,5.40
2018-06-21T11:56:06.188Z,5.50
2018-06-21T11:57:06.193Z,7.00
2018-06-21T11:58:06.205Z,11.20
2018-06-21T11:59:06.208Z,5.50
2018-06-21T12:00:06.214Z,9.60
2018-06-21T12:01:06.227Z,3.20
2018-06-21T12:02:06.241Z,4.90
2018-06-21T12:03:06.238Z,5.80
2018-06-21T12:04:06.245Z,4.00
2018-06-21T12:05:06.249Z,2.90
2018-06-21T12:06:06.357Z,4.70
2018-06-21T12:07:06.262Z,4.00
2018-06-21T12:08:06.268Z,2.20
2018-06-21T12:09:06.274Z,3.30
2018-06-21T12:10:06.284Z,1.70
2018-06-21T12:11:06.304Z,4.00
2018-06-21T12:12:06.295Z,2.90
2018-06-21T12:13:06.300Z,3.00
2018-06-21T12:14:06.310Z,4.30
2018-06-21T12:15:06.311Z,1.70
2018-06-21T12:16:06.320Z,1.80
2018-06-21T12:17:06.323Z,3.70
2018-06-21T12:18:06.329Z,1.30
2018-06-21T12:19:06.338Z,1.60
2018-06-21T12:20:06.342Z,3.60
2018-06-21T12:21:06.349Z,3.80
2018-06-21T12:22:06.371Z,3.00
2018-06-21T12:23:06.360Z,2.50
2018-06-21T12:24:06.365Z,2.00
2018-06-21T12:25:06.372Z,2.70
2018-06-21T12:26:06.494Z,3.50
2018-06-21T12:27:06.386Z,3.10
2018-06-21T12:28:06.395Z,2.90
2018-06-21T12:29:06.396Z,11.70
2018-06-21T12:30:06.407Z,6.50
2018-06-21T12:31:06.416Z,3.50
2018-06-21T12:32:06.491Z,5.30
2018-06-21T12:33:06.423Z,3.90
2018-06-21T12:34:06.426Z,3.10
2018-06-21T12:35:06.441Z,2.80
2018-06-21T12:36:06.439Z,3.50
2018-06-21T12:37:06.443Z,3.40
2018-06-21T12:38:06.630Z,5.70
2018-06-21T12:39:06.458Z,5.90
2018-06-21T12:40:06.461Z,3.40
2018-06-21T12:41:06.469Z,4.20
2018-06-21T12:42:06.472Z,3.70
2018-06-21T12:43:06.479Z,5.60
2018-06-21T12:44:06.658Z,3.10
2018-06-21T12:45:06.488Z,3.80
2018-06-21T12:46:06.495Z,5.40
2018-06-21T12:47:06.530Z,5.60
2018-06-21T12:48:06.510Z,3.00
2018-06-21T12:49:06.512Z,3.40
2018-06-21T12:50:06.517Z,4.00
2018-06-21T12:51:06.527Z,4.10
2018-06-21T12:52:06.537Z,5.00
2018-06-21T12:53:06.541Z,5.00
2018-06-21T12:54:06.538Z,5.20
2018-06-21T12:55:06.547Z,5.40
2018-06-21T12:56:06.554Z,4.70
2018-06-21T12:57:06.557Z,5.50
2018-06-21T12:58:06.627Z,5.20
2018-06-21T12:59:06.568Z,7.30
2018-06-21T13:00:06.569Z,4.80
2018-06-21T13:01:06.574Z,5.20
2018-06-21T13:02:06.582Z,4.90
2018-06-21T13:03:06.590Z,7.20
2018-06-21T13:04:06.592Z,5.50
2018-06-21T13:05:06.596Z,7.70
2018-06-21T13:06:06.654Z,8.90
2018-06-21T13:07:06.609Z,5.90
2018-06-21T13:08:06.615Z,7.40